Time;durP1;ratioP1;P1;durP2;ratioP2;P2;SDS_P1;SDS_P2;PMS_P1;PMS_P2;Temp;Humidity;BMP_temperature;BMP_pressure;BME280_temperature;BME280_humidity;BME280_pressure;Samples;Min_cycle;Max_cycle;Signal;HPM_P1;HPM_P2
2021/12/30 00:02:00;;;;;;;146.30;94.20;;;154.10;2252.80;;;;;;6191564;23;20063;-81
2021/12/30 00:04:26;;;;;;;123.30;80.18;;;154.10;2252.80;;;;;;6191385;23;20003;-82
2021/12/30 00:06:52;;;;;;;128.95;80.53;;;154.10;2252.80;;;;;;6218111;23;19988;-86
2021/12/30 00:09:20;;;;;;;140.25;90.63;;;154.10;2252.80;;;;;;6191490;23;20000;-81
2021/12/30 00:11:46;;;;;;;129.38;82.28;;;154.10;2252.80;;;;;;6191194;23;20012;-86
2021/12/30 00:14:12;;;;;;;164.18;93.90;;;154.10;2252.80;;;;;;6191346;23;20051;-82
2021/12/30 00:16:38;;;;;;;174.63;104.85;;;154.20;2252.80;;;;;;6191455;23;19996;-84
2021/12/30 00:19:04;;;;;;;167.77;105.90;;;154.30;2252.80;;;;;;6191332;23;20080;-85
2021/12/30 00:21:30;;;;;;;185.00;112.85;;;154.20;2252.80;;;;;;6191048;23;20004;-85
2021/12/30 00:23:56;;;;;;;159.13;99.47;;;154.30;2252.80;;;;;;6191270;23;19997;-84
2021/12/30 00:26:22;;;;;;;156.25;95.05;;;154.30;2252.80;;;;;;6191237;23;20311;-84
2021/12/30 00:28:48;;;;;;;148.38;94.43;;;154.30;2252.80;;;;;;6191085;23;20000;-86
2021/12/30 00:31:15;;;;;;;150.75;89.15;;;154.30;2252.80;;;;;;6191242;23;20009;-86
2021/12/30 00:33:41;;;;;;;136.70;86.80;;;154.40;2252.80;;;;;;6166353;23;20001;-86
2021/12/30 00:36:09;;;;;;;142.07;94.70;;;154.40;2252.80;;;;;;6191431;23;20019;-84
2021/12/30 00:38:37;;;;;;;170.80;112.00;;;154.40;2252.80;;;;;;6190885;23;20008;-85
2021/12/30 00:41:03;;;;;;;181.15;117.38;;;154.40;2252.80;;;;;;6191476;23;20087;-83
2021/12/30 00:43:29;;;;;;;189.50;118.13;;;154.40;2252.80;;;;;;6191316;23;20008;-85
2021/12/30 00:45:55;;;;;;;206.00;126.53;;;154.30;2252.80;;;;;;6190640;23;20004;-84
2021/12/30 00:48:22;;;;;;;102.28;62.75;;;154.30;2252.80;;;;;;6191229;23;19997;-82
2021/12/30 00:50:48;;;;;;;96.57;59.58;;;154.30;2252.80;;;;;;6191043;23;20059;-81
2021/12/30 00:53:14;;;;;;;59.63;36.17;;;154.50;2252.80;;;;;;6190829;23;20000;-84
2021/12/30 00:55:40;;;;;;;68.10;42.88;;;154.50;2252.80;;;;;;6191102;23;20012;-81
2021/12/30 00:58:07;;;;;;;62.65;42.03;;;179.20;2252.80;;;;;;6191096;23;20399;-83
2021/12/30 01:00:35;;;;;;;53.50;36.58;;;179.30;2252.80;;;;;;6166058;23;20001;-82
2021/12/30 01:03:01;;;;;;;100.25;69.45;;;179.30;2252.80;;;;;;6190888;23;19997;-82
2021/12/30 01:05:27;;;;;;;115.30;75.65;;;179.20;2252.80;;;;;;6166236;23;20004;-82
2021/12/30 01:07:53;;;;;;;125.25;83.68;;;154.50;2252.80;;;;;;6217082;23;19993;-83
2021/12/30 01:10:23;;;;;;;144.95;97.45;;;154.50;2252.80;;;;;;6196140;23;20001;-80
2021/12/30 01:12:49;;;;;;;108.03;73.75;;;154.40;2252.80;;;;;;6227967;23;20000;-82
2021/12/30 01:15:19;;;;;;;71.57;47.70;;;154.40;2252.80;;;;;;6201190;23;20055;-81
2021/12/30 01:17:54;;;;;;;41.65;27.38;;;154.40;2252.80;;;;;;6199961;23;20001;-81
2021/12/30 01:20:21;;;;;;;33.90;23.73;;;154.50;2252.80;;;;;;6201081;23;20303;-81
2021/12/30 01:22:49;;;;;;;55.63;35.08;;;179.20;2252.80;;;;;;6200531;23;19996;-81
2021/12/30 01:25:15;;;;;;;46.80;27.83;;;179.20;2252.80;;;;;;6200202;23;19996;-82
2021/12/30 01:27:41;;;;;;;29.60;20.33;;;179.20;2252.80;;;;;;6195936;23;20070;-81
2021/12/30 01:30:18;;;;;;;31.70;21.02;;;179.20;2252.80;;;;;;6199390;23;20075;-80
2021/12/30 01:32:44;;;;;;;27.77;17.98;;;179.20;2252.80;;;;;;6193392;23;20220;-82
2021/12/30 01:35:12;;;;;;;28.70;18.45;;;179.30;2252.80;;;;;;6190500;23;19996;-84
2021/12/30 01:37:39;;;;;;;138.43;87.78;;;179.30;2252.80;;;;;;6217424;23;19989;-85
2021/12/30 01:40:11;;;;;;;155.30;97.47;;;179.20;2252.80;;;;;;6190615;23;20406;-82
2021/12/30 01:42:37;;;;;;;142.68;90.95;;;179.20;2252.80;;;;;;6190803;23;20005;-82
2021/12/30 01:45:04;;;;;;;148.60;93.93;;;179.20;2252.80;;;;;;6190446;23;20406;-83
2021/12/30 01:47:30;;;;;;;157.10;99.90;;;179.20;2252.80;;;;;;6190255;23;20414;-82
2021/12/30 01:49:56;;;;;;;150.25;94.32;;;179.20;2252.80;;;;;;6190406;23;20000;-82
2021/12/30 01:52:22;;;;;;;103.72;66.07;;;154.50;2252.80;;;;;;6216775;23;20100;-83
2021/12/30 01:54:48;;;;;;;113.57;68.00;;;179.20;2252.80;;;;;;6190248;23;20350;-82
2021/12/30 01:57:14;;;;;;;122.45;74.05;;;179.20;2252.80;;;;;;6190414;23;20005;-83
2021/12/30 01:59:40;;;;;;;89.10;58.40;;;179.30;2252.80;;;;;;6190569;23;20079;-82
2021/12/30 02:02:06;;;;;;;46.15;30.92;;;179.30;2252.80;;;;;;6216681;23;20000;-80
2021/12/30 02:04:33;;;;;;;39.65;25.25;;;179.30;2252.80;;;;;;6190005;23;20425;-83
2021/12/30 02:06:59;;;;;;;30.33;20.48;;;179.30;2252.80;;;;;;6215454;23;20035;-84
2021/12/30 02:09:25;;;;;;;28.73;20.85;;;179.30;2252.80;;;;;;6190393;23;20123;-84
2021/12/30 02:11:54;;;;;;;21.83;14.70;;;179.40;2252.80;;;;;;6215290;23;20326;-82
2021/12/30 02:14:20;;;;;;;21.38;14.95;;;179.40;2252.80;;;;;;6216809;23;19997;-82
2021/12/30 02:16:46;;;;;;;20.73;15.38;;;179.40;2252.80;;;;;;6190029;23;19993;-82
2021/12/30 02:19:12;;;;;;;22.98;15.52;;;179.40;2252.80;;;;;;6217008;23;19997;-84
2021/12/30 02:21:38;;;;;;;23.92;16.60;;;179.40;2252.80;;;;;;6190471;23;20035;-83
2021/12/30 02:24:05;;;;;;;19.55;13.70;;;179.40;2252.80;;;;;;6190142;23;20423;-83
2021/12/30 02:26:30;;;;;;;25.55;18.00;;;179.40;2252.80;;;;;;6190424;23;19997;-84
2021/12/30 02:28:56;;;;;;;24.30;16.80;;;179.40;2252.80;;;;;;6190339;23;20084;-82
2021/12/30 02:31:27;;;;;;;19.90;13.02;;;179.40;2252.80;;;;;;6189821;23;20355;-83
2021/12/30 02:33:57;;;;;;;28.80;19.55;;;179.40;2252.80;;;;;;6190100;23;20410;-84
2021/12/30 02:36:31;;;;;;;37.08;23.15;;;179.40;2252.80;;;;;;6190454;23;20107;-82
2021/12/30 02:38:58;;;;;;;60.53;34.95;;;179.40;2252.80;;;;;;6216195;23;19999;-82
2021/12/30 02:41:27;;;;;;;33.28;21.60;;;179.40;2252.80;;;;;;6190409;23;20000;-82
2021/12/30 02:43:53;;;;;;;29.83;21.77;;;179.40;2252.80;;;;;;6190228;23;20003;-84
2021/12/30 02:46:23;;;;;;;22.95;15.95;;;179.40;2252.80;;;;;;6216420;23;20080;-83
2021/12/30 02:48:52;;;;;;;24.55;15.93;;;179.40;2252.80;;;;;;6190297;23;20088;-84
2021/12/30 02:51:19;;;;;;;19.15;13.88;;;179.50;2252.80;;;;;;6190055;23;20015;-82
2021/12/30 02:53:44;;;;;;;18.15;13.25;;;179.50;2252.80;;;;;;6216180;23;20021;-82
2021/12/30 02:56:10;;;;;;;19.65;13.88;;;179.40;2252.80;;;;;;6184438;23;20016;-84
2021/12/30 02:58:36;;;;;;;18.38;14.55;;;179.40;2252.80;;;;;;6183209;23;20023;-81
2021/12/30 03:01:15;;;;;;;17.30;12.75;;;179.40;2252.80;;;;;;6183500;23;20032;-83
2021/12/30 03:03:42;;;;;;;24.92;18.88;;;179.40;2252.80;;;;;;6183983;23;20020;-81
2021/12/30 03:06:10;;;;;;;21.17;16.15;;;179.40;2252.80;;;;;;6183428;23;20442;-84
2021/12/30 03:08:36;;;;;;;19.00;14.60;;;179.40;2252.80;;;;;;6183789;23;20371;-83
2021/12/30 03:11:03;;;;;;;17.05;13.75;;;179.40;2252.80;;;;;;6183696;23;20027;-84
2021/12/30 03:13:31;;;;;;;26.90;19.45;;;179.30;2252.80;;;;;;6183197;23;20013;-83
2021/12/30 03:16:05;;;;;;;19.55;15.23;;;179.40;2252.80;;;;;;6183870;23;20019;-81
2021/12/30 03:18:32;;;;;;;19.50;15.68;;;179.40;2252.80;;;;;;6185439;23;20024;-84
2021/12/30 03:21:00;;;;;;;18.90;15.23;;;179.40;2252.80;;;;;;6184888;23;20012;-83
2021/12/30 03:23:25;;;;;;;17.48;13.70;;;179.40;2252.80;;;;;;6185600;23;20029;-84
2021/12/30 03:25:51;;;;;;;21.58;15.05;;;179.40;2252.80;;;;;;6185617;23;20326;-82
2021/12/30 03:28:18;;;;;;;22.30;17.42;;;179.40;2252.80;;;;;;6184991;23;20031;-82
2021/12/30 03:30:44;;;;;;;22.08;16.58;;;179.40;2252.80;;;;;;6185544;23;20091;-82
2021/12/30 03:33:10;;;;;;;17.60;13.38;;;179.40;2252.80;;;;;;6185306;23;20031;-82
2021/12/30 07:41:06;;;;;;;142.45;79.05;;;179.80;2252.80;;;;;;6213195;23;20323;-86
2021/12/30 07:43:32;;;;;;;109.28;63.90;;;179.80;2252.80;;;;;;6218478;23;20000;-83
2021/12/30 07:45:59;;;;;;;158.80;84.93;;;179.80;2252.80;;;;;;6190911;23;19997;-84
2021/12/30 07:48:25;;;;;;;141.77;81.63;;;179.80;2252.80;;;;;;6191466;23;20039;-84
2021/12/30 07:50:51;;;;;;;42.97;26.73;;;179.70;2252.80;;;;;;6191675;23;20000;-83
2021/12/30 07:53:17;;;;;;;62.92;38.05;;;179.80;2252.80;;;;;;6191204;23;20357;-84
2021/12/30 07:55:43;;;;;;;72.45;39.25;;;179.90;2252.80;;;;;;6191814;23;20100;-83
2021/12/30 07:58:09;;;;;;;37.70;23.55;;;180.00;2252.80;;;;;;6191622;23;20311;-85
2021/12/30 08:00:35;;;;;;;39.88;24.13;;;180.00;2252.80;;;;;;6191266;23;20083;-85
2021/12/30 08:03:01;;;;;;;98.35;53.85;;;180.00;2252.80;;;;;;6191648;23;20102;-85
2021/12/30 08:05:28;;;;;;;115.22;68.40;;;180.00;2252.80;;;;;;6191483;23;20504;-83
2021/12/30 08:07:54;;;;;;;101.10;58.53;;;180.10;2252.80;;;;;;6191362;23;20047;-84
2021/12/30 08:10:22;;;;;;;128.13;73.75;;;180.10;2252.80;;;;;;6191448;23;20000;-83
2021/12/30 08:12:49;;;;;;;114.47;65.63;;;180.10;2252.80;;;;;;6191377;23;20365;-85
2021/12/30 08:15:16;;;;;;;108.10;66.78;;;204.80;2252.80;;;;;;6191087;23;20035;-82
2021/12/30 08:17:43;;;;;;;37.63;24.23;;;204.90;2252.80;;;;;;6191398;23;20315;-84
2021/12/30 08:20:10;;;;;;;60.60;39.92;;;204.90;2252.80;;;;;;6191425;23;20084;-85
2021/12/30 08:22:37;;;;;;;45.60;30.88;;;204.80;2252.80;;;;;;6191292;23;20001;-84
2021/12/30 08:25:04;;;;;;;42.88;30.27;;;204.90;2252.80;;;;;;6217841;23;20020;-82
2021/12/30 08:27:30;;;;;;;66.85;42.88;;;205.00;2252.80;;;;;;6191182;23;20024;-85
2021/12/30 08:30:12;;;;;;;73.78;42.40;;;205.00;2252.80;;;;;;6191149;23;19996;-85
2021/12/30 08:32:39;;;;;;;52.05;32.50;;;205.00;2252.80;;;;;;6191381;23;20059;-83
2021/12/30 08:35:07;;;;;;;51.55;33.20;;;205.00;2252.80;;;;;;6190863;23;20008;-82
2021/12/30 08:37:34;;;;;;;103.57;64.93;;;205.00;2252.80;;;;;;6190667;23;20001;-83
2021/12/30 08:40:04;;;;;;;67.70;40.65;;;205.10;2252.80;;;;;;6191185;23;20074;-82
2021/12/30 08:42:30;;;;;;;59.80;40.90;;;205.10;2252.80;;;;;;6190713;23;20019;-82
2021/12/30 08:44:58;;;;;;;123.40;61.47;;;205.00;2252.80;;;;;;6191161;23;20001;-82
2021/12/30 08:47:25;;;;;;;87.28;47.88;;;205.10;2252.80;;;;;;6191119;23;20003;-83
2021/12/30 08:49:53;;;;;;;36.20;21.60;;;205.10;2252.80;;;;;;6190826;23;19993;-82
2021/12/30 08:52:21;;;;;;;42.83;26.92;;;205.10;2252.80;;;;;;6190799;23;20035;-82
2021/12/30 08:54:49;;;;;;;76.22;45.13;;;205.10;2252.80;;;;;;6217368;23;20067;-81
2021/12/30 08:57:16;;;;;;;107.22;54.08;;;205.10;2252.80;;;;;;6190765;23;20000;-83
2021/12/30 08:59:42;;;;;;;79.72;44.97;;;205.10;2252.80;;;;;;6190885;23;19996;-81
2021/12/30 09:02:08;;;;;;;76.53;37.25;;;205.10;2252.80;;;;;;6190731;23;20449;-81
2021/12/30 09:04:34;;;;;;;53.42;31.90;;;205.10;2252.80;;;;;;6190728;23;20000;-82
2021/12/30 09:07:01;;;;;;;62.72;33.80;;;205.10;2252.80;;;;;;6190704;23;20004;-83
2021/12/30 09:09:27;;;;;;;232.35;90.43;;;205.10;2252.80;;;;;;6190426;23;20083;-83
2021/12/30 09:11:53;;;;;;;66.80;31.80;;;205.10;2252.80;;;;;;6190708;23;20000;-83
2021/12/30 09:14:19;;;;;;;29.30;17.33;;;205.10;2252.80;;;;;;6217096;23;20135;-84
2021/12/30 09:16:48;;;;;;;59.03;30.35;;;205.00;2252.80;;;;;;6190712;23;20013;-84
2021/12/30 09:19:14;;;;;;;44.20;23.17;;;205.00;2252.80;;;;;;6190623;23;20064;-82
2021/12/30 09:21:40;;;;;;;72.35;37.25;;;205.00;2252.80;;;;;;6216956;23;20437;-83
2021/12/30 09:24:07;;;;;;;54.20;34.50;;;205.00;2252.80;;;;;;6190364;23;20004;-85
2021/12/30 09:26:33;;;;;;;53.83;35.30;;;205.00;2252.80;;;;;;6217172;23;19996;-83
2021/12/30 09:28:59;;;;;;;43.40;31.80;;;205.00;2252.80;;;;;;6190113;23;20442;-84
2021/12/30 09:31:25;;;;;;;47.08;30.13;;;205.00;2252.80;;;;;;6190418;23;20011;-84
2021/12/30 09:33:51;;;;;;;68.07;40.45;;;205.10;2252.80;;;;;;6190063;23;20004;-85
2021/12/30 09:36:16;;;;;;;80.32;52.70;;;205.10;2252.80;;;;;;6190653;23;20083;-83
2021/12/30 09:38:42;;;;;;;55.55;41.38;;;205.10;2252.80;;;;;;6190373;23;20414;-82
2021/12/30 09:41:08;;;;;;;59.22;39.58;;;205.10;2252.80;;;;;;6190126;23;20012;-82
2021/12/30 09:43:34;;;;;;;57.67;45.65;;;205.10;2252.80;;;;;;6190503;23;20005;-81
2021/12/30 09:46:00;;;;;;;58.20;40.58;;;205.10;2252.80;;;;;;6190339;23;20087;-84
2021/12/30 09:48:26;;;;;;;118.32;67.82;;;205.10;2252.80;;;;;;6216841;23;20086;-84
2021/12/30 09:50:55;;;;;;;103.70;62.13;;;205.10;2252.80;;;;;;6190484;23;19996;-85
2021/12/30 09:53:23;;;;;;;65.10;41.33;;;205.10;2252.80;;;;;;6190405;23;20044;-83
2021/12/30 09:55:51;;;;;;;58.55;34.97;;;205.10;2252.80;;;;;;6190701;23;20001;-83
2021/12/30 09:58:18;;;;;;;60.05;36.38;;;205.10;2252.80;;;;;;6190372;23;19999;-82
2021/12/30 10:00:45;;;;;;;80.05;48.85;;;205.10;2252.80;;;;;;6190519;23;20303;-84
2021/12/30 10:03:11;;;;;;;62.92;40.00;;;205.10;2252.80;;;;;;6190474;23;20005;-85
2021/12/30 10:05:41;;;;;;;66.95;46.55;;;205.10;2252.80;;;;;;6230270;23;20591;-83
2021/12/30 10:08:26;;;;;;;46.88;33.83;;;205.10;2252.80;;;;;;6204643;23;19997;-80
2021/12/30 10:10:57;;;;;;;43.58;29.30;;;205.10;2252.80;;;;;;6204891;23;20296;-81
2021/12/30 10:13:28;;;;;;;44.50;29.70;;;205.10;2252.80;;;;;;6204635;23;20056;-83
2021/12/30 10:16:09;;;;;;;49.72;32.00;;;205.10;2252.80;;;;;;6206183;23;20056;-80
2021/12/30 10:18:43;;;;;;;36.72;25.30;;;205.10;2252.80;;;;;;6200951;23;20096;-83
2021/12/30 10:21:19;;;;;;;42.55;27.30;;;205.20;2252.80;;;;;;6189942;23;19997;-82
2021/12/30 10:23:47;;;;;;;34.53;22.67;;;205.20;2252.80;;;;;;6190265;23;19993;-83
2021/12/30 10:26:13;;;;;;;45.55;25.35;;;205.20;2252.80;;;;;;6189496;23;20000;-81
2021/12/30 10:28:40;;;;;;;43.65;25.23;;;205.20;2252.80;;;;;;6189676;23;20288;-82
2021/12/30 10:31:12;;;;;;;34.17;22.85;;;205.30;2252.80;;;;;;6190255;23;20059;-82
2021/12/30 10:33:54;;;;;;;32.73;22.70;;;205.30;2252.80;;;;;;6190950;23;20031;-82
2021/12/30 10:36:31;;;;;;;32.10;23.77;;;205.40;2252.80;;;;;;6217359;23;20342;-85
2021/12/30 10:39:27;;;;;;;32.72;20.70;;;205.40;2252.80;;;;;;6190294;23;20007;-83
2021/12/30 10:42:09;;;;;;;23.92;16.67;;;205.40;2252.80;;;;;;6189582;23;20012;-82
2021/12/30 10:44:54;;;;;;;36.08;22.00;;;205.40;2252.80;;;;;;6189607;23;20012;-80
2021/12/30 10:47:39;;;;;;;45.85;29.25;;;205.50;2252.80;;;;;;6188976;23;20005;-83
2021/12/30 10:50:53;;;;;;;95.63;59.50;;;205.60;2252.80;;;;;;6189782;23;20091;-83
2021/12/30 10:57:00;;;;;;;61.60;40.35;;;205.60;2252.80;;;;;;6095189;23;20078;-83
2021/12/30 10:59:29;;;;;;;67.15;42.72;;;205.60;2252.80;;;;;;6189207;23;20000;-85
2021/12/30 11:02:12;;;;;;;60.80;39.47;;;205.70;2252.80;;;;;;6216438;23;20036;-83
2021/12/30 11:04:41;;;;;;;64.05;39.85;;;205.60;2252.80;;;;;;6190030;23;20001;-83
2021/12/30 11:07:12;;;;;;;54.10;35.10;;;205.60;2252.80;;;;;;6189851;23;19993;-85
2021/12/30 11:09:55;;;;;;;55.42;34.47;;;205.60;2252.80;;;;;;6189402;23;20028;-83
2021/12/30 11:12:29;;;;;;;57.13;32.13;;;205.60;2252.80;;;;;;6189949;23;20036;-86
2021/12/30 11:15:05;;;;;;;47.65;28.13;;;205.60;2252.80;;;;;;6189559;23;20007;-84
2021/12/30 11:17:36;;;;;;;39.80;24.27;;;205.60;2252.80;;;;;;6189655;23;20031;-83
2021/12/30 11:20:10;;;;;;;30.77;16.63;;;205.60;2252.80;;;;;;6189658;23;20045;-79
2021/12/30 11:22:38;;;;;;;30.42;19.83;;;205.60;2252.80;;;;;;6216029;23;20058;-81
2021/12/30 11:25:11;;;;;;;36.15;24.15;;;205.60;2252.80;;;;;;6189770;23;20103;-81
2021/12/30 11:27:38;;;;;;;41.83;27.63;;;205.50;2252.80;;;;;;6189682;23;19997;-83
2021/12/30 11:30:27;;;;;;;34.88;21.40;;;205.50;2252.80;;;;;;6189097;23;20415;-84
2021/12/30 11:32:53;;;;;;;45.22;28.77;;;205.60;2252.80;;;;;;6189423;23;20004;-84
2021/12/30 11:35:29;;;;;;;37.13;26.27;;;205.60;2252.80;;;;;;6189522;23;20043;-83
2021/12/30 11:37:56;;;;;;;46.17;30.90;;;205.60;2252.80;;;;;;6190457;23;20413;-82
2021/12/30 11:40:27;;;;;;;32.38;19.48;;;205.60;2252.80;;;;;;6191758;23;20470;-82
2021/12/30 11:43:07;;;;;;;27.92;19.23;;;205.60;2252.80;;;;;;6191223;23;20032;-83
2021/12/30 11:45:36;;;;;;;38.15;18.98;;;205.60;2252.80;;;;;;6218089;23;20004;-83
2021/12/30 11:48:20;;;;;;;28.13;16.35;;;205.50;2252.80;;;;;;6191289;23;20001;-83
2021/12/30 11:50:47;;;;;;;21.33;15.45;;;205.50;2252.80;;;;;;6191005;23;19997;-83
2021/12/30 11:53:28;;;;;;;20.23;12.82;;;205.50;2252.80;;;;;;6191204;23;20008;-84
2021/12/30 11:56:24;;;;;;;22.20;14.65;;;205.50;2252.80;;;;;;6191120;23;19996;-83
2021/12/30 12:02:46;;;;;;;25.48;18.00;;;205.50;2252.80;;;;;;6134895;23;20008;-84
2021/12/30 12:05:43;;;;;;;26.83;17.60;;;205.40;2252.80;;;;;;6126589;23;20039;-83
2021/12/30 12:08:53;;;;;;;120.97;63.45;;;205.40;2252.80;;;;;;6191329;23;19997;-85
2021/12/30 12:14:59;;;;;;;71.03;54.53;;;205.50;2252.80;;;;;;6217870;23;20067;-87
2021/12/30 12:17:46;;;;;;;47.90;38.95;;;205.50;2252.80;;;;;;6191460;23;20065;-87
2021/12/30 12:20:20;;;;;;;57.83;38.03;;;205.50;2252.80;;;;;;6191025;23;20000;-83
2021/12/30 12:22:47;;;;;;;71.75;47.28;;;205.50;2252.80;;;;;;6191050;23;20095;-84
2021/12/30 12:25:28;;;;;;;60.20;45.15;;;205.60;2252.80;;;;;;6191250;23;20060;-85
2021/12/30 12:28:18;;;;;;;65.68;42.75;;;205.60;2252.80;;;;;;6190890;23;20000;-85
2021/12/30 12:33:58;;;;;;;40.67;30.67;;;205.70;2252.80;;;;;;6217101;23;20143;-83
2021/12/30 12:36:38;;;;;;;45.75;27.23;;;205.70;2252.80;;;;;;6191152;23;20001;-85
2021/12/30 12:39:34;;;;;;;60.85;42.33;;;205.70;2252.80;;;;;;6190227;23;20001;-82
2021/12/30 12:42:06;;;;;;;40.22;28.50;;;205.70;2252.80;;;;;;6190222;23;20304;-85
2021/12/30 12:44:32;;;;;;;44.97;29.13;;;205.70;2252.80;;;;;;6190439;23;20000;-86
2021/12/30 12:46:59;;;;;;;42.13;29.55;;;205.70;2252.80;;;;;;6190502;23;20011;-83
2021/12/30 12:49:31;;;;;;;31.00;24.05;;;205.60;2252.80;;;;;;6189281;23;20004;-84
2021/12/30 12:51:57;;;;;;;29.30;20.60;;;205.60;2252.80;;;;;;6190804;23;20008;-83
2021/12/30 12:54:39;;;;;;;21.40;16.15;;;205.60;2252.80;;;;;;6190592;23;20490;-83
2021/12/30 12:57:28;;;;;;;29.93;18.40;;;205.60;2252.80;;;;;;6191402;23;20470;-85
2021/12/30 12:59:55;;;;;;;38.38;22.63;;;205.60;2252.80;;;;;;6191512;23;20218;-81
2021/12/30 13:03:07;;;;;;;26.23;18.40;;;205.50;2252.80;;;;;;6190876;23;20046;-87
2021/12/30 13:05:33;;;;;;;37.63;26.00;;;205.60;2252.80;;;;;;6124778;23;20393;-84
2021/12/30 13:08:22;;;;;;;25.58;18.38;;;205.60;2252.80;;;;;;6100878;23;20001;-85
2021/12/30 13:11:00;;;;;;;26.52;16.27;;;205.60;2252.80;;;;;;6101243;23;20413;-84
2021/12/30 13:13:53;;;;;;;28.35;18.20;;;205.50;2252.80;;;;;;6125545;23;20419;-84
2021/12/30 13:16:24;;;;;;;25.35;18.42;;;205.50;2252.80;;;;;;6100811;23;20001;-85
2021/12/30 13:19:18;;;;;;;26.27;17.38;;;205.50;2252.80;;;;;;6101228;23;20002;-85
2021/12/30 13:22:27;;;;;;;30.58;19.23;;;205.50;2252.80;;;;;;6100827;23;20009;-84
2021/12/30 13:25:24;;;;;;;26.02;16.23;;;205.50;2252.80;;;;;;6084724;23;20009;-86
2021/12/30 13:27:51;;;;;;;30.30;19.50;;;205.50;2252.80;;;;;;6100725;23;20006;-85
2021/12/30 13:30:23;;;;;;;80.00;54.42;;;205.50;2252.80;;;;;;6108754;23;20002;-84
2021/12/30 13:32:53;;;;;;;70.75;34.25;;;205.50;2252.80;;;;;;6100481;23;20044;-86
2021/12/30 13:35:26;;;;;;;78.28;33.70;;;205.50;2252.80;;;;;;6100575;23;20408;-84
2021/12/30 13:37:51;;;;;;;;;;;205.50;2252.80;;;;;;6190918;23;20429;-86
2021/12/30 13:40:33;;;;;;;72.50;39.13;;;205.50;2252.80;;;;;;6190554;23;19896;-83
2021/12/30 13:46:32;;;;;;;67.68;35.75;;;205.40;2252.80;;;;;;6209770;22;20038;-87
2021/12/30 13:49:02;;;;;;;64.80;39.65;;;205.40;2252.80;;;;;;6218969;23;20099;-85
2021/12/30 13:51:36;;;;;;;25.92;18.05;;;205.40;2252.80;;;;;;6211200;23;20008;-86
2021/12/30 13:54:07;;;;;;;37.60;24.95;;;205.40;2252.80;;;;;;6220361;23;20004;-84
2021/12/30 13:57:11;;;;;;;46.45;35.55;;;205.50;2252.80;;;;;;6220055;23;20058;-85
2021/12/30 14:03:43;;;;;;;26.92;19.95;;;205.50;2252.80;;;;;;6038368;23;20007;-85
2021/12/30 14:09:34;;;;;;;60.90;41.70;;;205.40;2252.80;;;;;;6024809;23;20406;-84
2021/12/30 14:12:22;;;;;;;49.72;31.00;;;205.40;2252.80;;;;;;6090316;23;20002;-85
2021/12/30 14:15:03;;;;;;;40.72;25.55;;;205.40;2252.80;;;;;;6150489;23;20000;-83
2021/12/30 14:17:29;;;;;;;37.88;24.23;;;205.30;2252.80;;;;;;6220026;23;20004;-81
2021/12/30 14:19:55;;;;;;;64.15;42.05;;;205.30;2252.80;;;;;;6220180;23;20049;-83
2021/12/30 14:22:32;;;;;;;37.63;25.35;;;205.40;2252.80;;;;;;6219160;23;20008;-85
2021/12/30 14:24:58;;;;;;;43.33;26.48;;;205.40;2252.80;;;;;;6220127;23;20067;-84
2021/12/30 14:27:26;;;;;;;29.05;17.55;;;205.40;2252.80;;;;;;6231965;23;20011;-83
2021/12/30 14:29:52;;;;;;;25.27;17.05;;;205.30;2252.80;;;;;;6241466;23;20028;-84
2021/12/30 14:32:27;;;;;;;28.23;19.48;;;205.30;2252.80;;;;;;6220524;23;20031;-82
2021/12/30 14:35:03;;;;;;;50.90;29.92;;;205.30;2252.80;;;;;;6220012;23;20425;-83
2021/12/30 14:37:38;;;;;;;83.60;50.80;;;205.20;2252.80;;;;;;6219743;23;20007;-83
2021/12/30 14:40:05;;;;;;;66.35;41.35;;;205.20;2252.80;;;;;;6220076;23;20043;-83
2021/12/30 14:42:31;;;;;;;67.70;46.22;;;205.20;2252.80;;;;;;6219860;23;20004;-83
2021/12/30 14:45:04;;;;;;;59.60;41.45;;;205.20;2252.80;;;;;;6220174;23;20000;-82
2021/12/30 14:47:46;;;;;;;73.03;51.03;;;205.20;2252.80;;;;;;6219956;23;20023;-83
2021/12/30 14:50:19;;;;;;;33.83;24.10;;;205.20;2252.80;;;;;;6219899;23;20303;-84
2021/12/30 14:52:51;;;;;;;43.17;29.60;;;205.20;2252.80;;;;;;6220057;23;20329;-83
2021/12/30 14:55:21;;;;;;;39.53;26.93;;;205.20;2252.80;;;;;;6219535;23;20011;-81
2021/12/30 14:57:54;;;;;;;39.08;24.98;;;205.20;2252.80;;;;;;6219729;23;20004;-86
2021/12/30 15:00:23;;;;;;;35.53;24.42;;;205.20;2252.80;;;;;;6219812;23;20008;-84
2021/12/30 15:02:52;;;;;;;39.95;25.33;;;205.20;2252.80;;;;;;6220038;23;20020;-84
2021/12/30 15:05:19;;;;;;;31.27;22.08;;;205.20;2252.80;;;;;;6219222;23;20083;-80
2021/12/30 15:07:45;;;;;;;39.60;27.23;;;205.20;2252.80;;;;;;6219247;23;20000;-82
2021/12/30 15:10:14;;;;;;;27.67;20.40;;;205.20;2252.80;;;;;;6219912;23;20075;-82
2021/12/30 15:12:43;;;;;;;45.35;30.65;;;205.20;2252.80;;;;;;6247264;23;20414;-83
2021/12/30 15:15:11;;;;;;;66.35;40.13;;;205.20;2252.80;;;;;;6221925;23;20054;-84
2021/12/30 15:17:38;;;;;;;47.15;31.42;;;205.20;2252.80;;;;;;6221437;23;19996;-85
2021/12/30 15:20:18;;;;;;;38.10;26.95;;;205.20;2252.80;;;;;;6221596;23;20051;-89
2021/12/30 15:22:47;;;;;;;67.78;39.03;;;205.20;2252.80;;;;;;6222361;23;20005;-86
2021/12/30 15:25:14;;;;;;;65.53;35.90;;;205.10;2252.80;;;;;;6220860;23;20008;-83
2021/12/30 15:27:40;;;;;;;39.35;27.17;;;205.10;2252.80;;;;;;6221678;23;20000;-85
2021/12/30 15:30:10;;;;;;;35.25;22.23;;;205.10;2252.80;;;;;;6222062;23;20083;-87
2021/12/30 15:32:36;;;;;;;41.22;27.35;;;205.10;2252.80;;;;;;6221107;23;20410;-86
2021/12/30 15:35:02;;;;;;;86.32;48.28;;;205.00;2252.80;;;;;;6221808;23;20012;-84
2021/12/30 15:37:28;;;;;;;89.22;56.63;;;205.10;2252.80;;;;;;6248158;23;20418;-85
2021/12/30 15:39:54;;;;;;;69.13;42.20;;;205.10;2252.80;;;;;;6221813;23;19996;-84
2021/12/30 15:42:20;;;;;;;41.00;24.63;;;205.10;2252.80;;;;;;6221791;23;20000;-88
2021/12/30 15:44:48;;;;;;;46.15;32.00;;;205.00;2252.80;;;;;;6221538;23;20000;-82
2021/12/30 15:47:15;;;;;;;72.72;40.35;;;205.00;2252.80;;;;;;6221129;23;20310;-84
2021/12/30 15:49:41;;;;;;;74.88;45.40;;;205.00;2252.80;;;;;;6248277;23;19997;-80
2021/12/30 15:52:07;;;;;;;128.23;75.35;;;205.20;2252.80;;;;;;6220594;23;20010;-82
2021/12/30 15:54:33;;;;;;;111.72;68.30;;;205.00;2252.80;;;;;;6220726;23;20008;-79
2021/12/30 15:56:59;;;;;;;103.05;64.45;;;205.20;2252.80;;;;;;6221147;23;20002;-78
2021/12/30 15:59:27;;;;;;;91.43;57.10;;;205.20;2252.80;;;;;;6220707;23;20004;-79
2021/12/30 16:01:54;;;;;;;98.57;55.60;;;205.30;2252.80;;;;;;6220980;23;20008;-80
2021/12/30 16:04:20;;;;;;;93.88;58.05;;;205.30;2252.80;;;;;;6221090;23;20003;-79
2021/12/30 16:06:46;;;;;;;108.95;69.10;;;205.30;2252.80;;;;;;6220461;23;20000;-79
2021/12/30 16:09:16;;;;;;;84.90;60.75;;;205.30;2252.80;;;;;;6221165;23;20083;-84
2021/12/30 16:11:46;;;;;;;98.97;63.55;;;205.30;2252.80;;;;;;6221261;23;20011;-86
2021/12/30 16:14:13;;;;;;;79.80;51.92;;;205.30;2252.80;;;;;;6221359;23;20493;-88
2021/12/30 16:16:39;;;;;;;64.85;44.90;;;205.30;2252.80;;;;;;6221337;23;20023;-86
2021/12/30 16:19:06;;;;;;;63.78;45.67;;;205.30;2252.80;;;;;;6221385;23;20015;-85
2021/12/30 16:21:41;;;;;;;79.13;55.25;;;205.20;2252.80;;;;;;6221186;23;20158;-86
2021/12/30 18:25:07;;;;;;;74.20;40.13;;;179.60;2252.80;;;;;;5132607;28;20080;-89
2021/12/30 18:27:39;;;;;;;68.80;41.10;;;179.70;2252.80;;;;;;5133116;28;20027;-89
2021/12/30 18:30:06;;;;;;;76.75;42.00;;;179.70;2252.80;;;;;;5131888;28;20016;-90
2021/12/30 18:32:32;;;;;;;71.82;44.08;;;179.80;2252.80;;;;;;5131939;28;20373;-86
2021/12/30 18:34:59;;;;;;;62.50;40.25;;;179.80;2252.80;;;;;;5131159;28;20103;-89
2021/12/30 18:37:25;;;;;;;58.67;39.47;;;179.90;2252.80;;;;;;5131783;28;20019;-89
2021/12/30 18:39:51;;;;;;;73.10;52.10;;;179.90;2252.80;;;;;;5131710;28;20022;-92
2021/12/30 18:42:17;;;;;;;62.55;44.22;;;179.90;2252.80;;;;;;5132168;28;20024;-92
2021/12/30 18:44:43;;;;;;;51.97;35.85;;;180.00;2252.80;;;;;;5131763;28;20016;-92
2021/12/30 18:47:09;;;;;;;51.72;33.60;;;180.00;2252.80;;;;;;5132079;28;20019;-87